Portada
METAR-TAF:

METAR-TAF

Aeroports :

Batam, Indonèsia

latitud: 01-07-15N, longitud: 104-07-07E, altitud: 38 m

Observació

L'informe es va fer fa 31 minuts, a les 03:00 UTC
Vent 6 kt del Est/Sud-Est
Temperatura 31°C
Humitat 75%
Pressió 1013 hPa
Visibilitat 10 km o més
Núvols disperses a una alçada de 1300 ft

METAR: WIDD 200300Z 12006KT 9999 SCT013 31/26 Q1013 NOSIG

Hora: 10:31 (03:31 UTC)

Pronòstic

L'informe es va fer fa 4 hores i 31 minuts, a les 23:00 UTC
Pronòstic vàlid del 20 a les 00 UTC al 20 a les 24 UTC
Vent kt del Nord
Visibilitat 10 km o més
Escasses núvols a una alçada de 1400 ft
Evolucionant progressivament
l' 20 a les 01 UTC al 20 a les 02 UTC
Vent 6 kt del Sud
Probabilitat 30% :
Temporalment
l' 20 a les 04 UTC al 20 a les 08 UTC
Visibilitat: 5000 m
Escasses núvols a una alçada de 1400 ft, Cumulonimbus.
Cel ennuvolat a una alçada de 1500 ft
tempesta, pluja

TAF: WIDD 192300Z 2000/2024 00000KT 9999 FEW014 BECMG 2001/2002 18006KT PROB30 TEMPO 2004/2008 5000 -TSRA FEW014CB BKN015

Observacions i pronòstics meteorològics de més de 4000 aeroports (METAR i TAF).

Les estacions disponibles són els punts grocs i vermells al mapa.

Posi el ratolí al punt desitjat per veure el nom de l'estació.

Feu clic per veure les observacions i els pronòstics meteorològics.

Per canviar el mapa: feu clic els botons verds amb una creu de color negre per apropar; al botó verd amb un guió per allunyar la imatge; o en les fletxes verdes per a mapes adjacents.


METAR-TAF: